createdAt,value
2022-08-24T00:00:51.441Z,93.70
2022-08-24T00:03:21.835Z,94.10
2022-08-24T00:05:52.601Z,95.40
2022-08-24T00:08:22.922Z,96.30
2022-08-24T00:10:53.045Z,96.90
2022-08-24T00:13:22.946Z,97.70
2022-08-24T00:15:55.221Z,98.20
2022-08-24T00:18:25.962Z,98.90
2022-08-24T00:20:56.901Z,99.00
2022-08-24T00:23:26.943Z,98.10
2022-08-24T00:25:57.235Z,97.30
2022-08-24T00:28:28.174Z,97.40
2022-08-24T00:31:00.847Z,97.80
2022-08-24T00:33:31.175Z,98.60
2022-08-24T00:36:02.838Z,98.80
2022-08-24T00:38:37.676Z,98.50
2022-08-24T00:41:08.398Z,98.60
2022-08-24T00:43:39.134Z,99.00
2022-08-24T00:46:19.704Z,98.90
2022-08-24T00:48:53.330Z,99.10
2022-08-24T00:51:29.039Z,99.40
2022-08-24T00:54:02.954Z,99.00
2022-08-24T00:56:37.073Z,99.60
2022-08-24T00:59:11.794Z,99.90
2022-08-24T01:01:44.841Z,99.90
2022-08-24T01:04:20.221Z,99.90
2022-08-24T01:06:50.860Z,99.90
2022-08-24T01:09:20.565Z,99.90
2022-08-24T01:11:50.976Z,99.90
2022-08-24T01:14:24.085Z,99.90
2022-08-24T01:17:13.048Z,99.90
2022-08-24T01:19:45.813Z,99.90
2022-08-24T01:22:32.225Z,99.90
2022-08-24T01:25:03.819Z,99.90
2022-08-24T01:27:36.257Z,99.90
2022-08-24T01:30:10.869Z,99.90
2022-08-24T01:32:41.497Z,99.50
2022-08-24T01:35:11.834Z,99.70
2022-08-24T01:37:42.258Z,99.70
2022-08-24T01:40:15.618Z,99.40
2022-08-24T01:42:50.588Z,98.90
2022-08-24T01:45:28.487Z,98.80
2022-08-24T01:47:59.154Z,98.20
2022-08-24T01:50:29.943Z,98.60
2022-08-24T01:53:14.502Z,98.70
2022-08-24T01:55:46.685Z,99.20
2022-08-24T01:58:17.928Z,99.00
2022-08-24T02:00:48.248Z,98.80
2022-08-24T02:03:18.560Z,98.60
2022-08-24T02:05:55.100Z,98.50
2022-08-24T02:08:26.078Z,98.80
2022-08-24T02:10:57.264Z,99.00
2022-08-24T02:13:29.083Z,99.20
2022-08-24T02:15:59.494Z,99.20
2022-08-24T02:18:34.035Z,99.30
2022-08-24T02:21:04.104Z,99.70
2022-08-24T02:23:34.373Z,99.70
2022-08-24T02:26:06.040Z,99.90
2022-08-24T02:28:36.459Z,99.90
2022-08-24T02:31:07.840Z,99.90
2022-08-24T02:33:38.439Z,99.90
2022-08-24T02:36:26.082Z,99.80
2022-08-24T02:39:00.482Z,99.70
2022-08-24T02:41:31.933Z,99.80
2022-08-24T02:44:01.750Z,99.90
2022-08-24T02:46:33.072Z,99.90
2022-08-24T02:49:10.860Z,99.90
2022-08-24T02:51:46.538Z,99.90
2022-08-24T02:54:26.616Z,99.90
2022-08-24T02:56:59.287Z,99.90
2022-08-24T02:59:30.532Z,99.90
2022-08-24T03:03:09.357Z,99.90
2022-08-24T03:05:48.356Z,99.90
2022-08-24T03:08:22.002Z,99.90
2022-08-24T03:10:52.924Z,99.90
2022-08-24T03:13:24.774Z,99.90
2022-08-24T03:15:54.955Z,99.90
2022-08-24T03:18:26.336Z,99.90
2022-08-24T03:20:57.898Z,99.90
2022-08-24T03:23:28.543Z,99.90
2022-08-24T03:26:05.212Z,99.90
2022-08-24T03:28:37.175Z,99.90
2022-08-24T03:31:09.510Z,99.90
2022-08-24T03:33:40.584Z,99.90
2022-08-24T03:36:14.341Z,99.90
2022-08-24T03:38:45.733Z,99.90
2022-08-24T03:41:16.474Z,99.90
2022-08-24T03:43:49.448Z,99.90
2022-08-24T03:46:25.248Z,99.90
2022-08-24T03:48:56.657Z,99.90
2022-08-24T03:51:30.346Z,99.90
2022-08-24T03:54:02.016Z,99.90
2022-08-24T03:56:32.023Z,99.90
2022-08-24T03:59:06.043Z,99.90
2022-08-24T04:01:40.900Z,99.90
2022-08-24T04:04:12.324Z,99.90
2022-08-24T04:06:44.904Z,99.90
2022-08-24T04:09:15.223Z,99.90
2022-08-24T04:11:51.881Z,99.90
2022-08-24T04:14:27.901Z,99.90
2022-08-24T04:17:06.986Z,99.90
2022-08-24T04:19:58.048Z,99.90
2022-08-24T04:22:39.993Z,99.90
2022-08-24T04:25:11.452Z,99.90
2022-08-24T04:27:43.394Z,99.90
2022-08-24T04:30:16.072Z,99.90
2022-08-24T04:33:09.347Z,99.90
2022-08-24T04:35:44.277Z,99.90
2022-08-24T04:38:14.600Z,99.90
2022-08-24T04:40:50.350Z,99.90
2022-08-24T04:43:21.606Z,99.90
2022-08-24T04:45:53.469Z,99.90
2022-08-24T04:48:25.627Z,99.80
2022-08-24T04:50:55.947Z,99.50
2022-08-24T04:53:26.378Z,99.70
2022-08-24T04:55:56.287Z,99.70
2022-08-24T04:58:27.521Z,99.40
2022-08-24T05:00:59.525Z,99.00
2022-08-24T05:03:30.540Z,99.00
2022-08-24T05:06:00.245Z,98.90
2022-08-24T05:08:30.259Z,98.70
2022-08-24T05:11:00.281Z,98.20
2022-08-24T05:13:31.215Z,98.40
2022-08-24T05:16:02.629Z,98.30
2022-08-24T05:18:34.229Z,98.30
2022-08-24T05:21:04.227Z,98.10
2022-08-24T05:23:34.157Z,98.00
2022-08-24T05:26:10.008Z,98.00
2022-08-24T05:28:41.456Z,98.10
2022-08-24T05:31:15.726Z,98.10
2022-08-24T05:33:45.783Z,98.20
2022-08-24T05:36:21.180Z,98.30
2022-08-24T05:38:51.857Z,98.10
2022-08-24T05:41:23.006Z,97.90
2022-08-24T05:43:59.887Z,98.00
2022-08-24T05:46:32.120Z,98.30
2022-08-24T05:49:02.495Z,97.90
2022-08-24T05:51:34.334Z,98.00
2022-08-24T05:54:09.884Z,98.00
2022-08-24T05:56:52.295Z,98.00
2022-08-24T05:59:23.023Z,97.50
2022-08-24T06:01:55.440Z,97.20
2022-08-24T06:04:25.729Z,97.90
2022-08-24T06:06:56.262Z,97.70
2022-08-24T06:09:26.577Z,97.70
2022-08-24T06:11:56.479Z,97.40
2022-08-24T06:14:27.235Z,97.50
2022-08-24T06:17:05.673Z,97.60
2022-08-24T06:19:36.368Z,97.40
2022-08-24T06:22:06.478Z,97.00
2022-08-24T06:24:58.496Z,96.60
2022-08-24T06:27:29.763Z,96.40
2022-08-24T06:30:03.882Z,96.50
2022-08-24T06:32:53.778Z,95.70
2022-08-24T06:35:46.652Z,94.10
2022-08-24T06:38:17.560Z,94.80
2022-08-24T06:40:53.532Z,95.00
2022-08-24T06:43:24.658Z,94.60
2022-08-24T06:45:57.440Z,95.60
2022-08-24T06:48:34.418Z,95.10
2022-08-24T06:51:10.178Z,94.90
2022-08-24T06:53:41.519Z,94.50
2022-08-24T06:56:11.939Z,94.50
2022-08-24T06:58:42.468Z,94.80
2022-08-24T07:01:19.530Z,94.20
2022-08-24T07:03:52.029Z,93.80
2022-08-24T07:06:37.297Z,92.60
2022-08-24T07:09:08.038Z,93.00
2022-08-24T07:11:42.447Z,91.70
2022-08-24T07:14:14.515Z,92.80
2022-08-24T07:16:45.358Z,93.00
2022-08-24T07:19:18.860Z,93.10
2022-08-24T07:21:49.689Z,93.00
2022-08-24T07:24:20.227Z,92.60
2022-08-24T07:26:50.026Z,93.00
2022-08-24T07:32:14.649Z,92.90
2022-08-24T07:34:47.527Z,92.30
2022-08-24T07:37:19.898Z,92.00
2022-08-24T07:39:52.099Z,91.50
2022-08-24T07:42:29.555Z,92.20
2022-08-24T07:45:04.187Z,91.80
2022-08-24T07:47:38.991Z,91.90
2022-08-24T07:50:27.041Z,91.70
2022-08-24T07:53:04.464Z,91.10
2022-08-24T07:55:45.926Z,90.80
2022-08-24T07:58:17.177Z,90.40
2022-08-24T08:00:49.548Z,90.50
2022-08-24T08:03:22.733Z,91.30
2022-08-24T08:06:00.955Z,90.50
2022-08-24T08:08:38.121Z,90.60
2022-08-24T08:11:12.340Z,89.60
2022-08-24T08:13:44.413Z,89.00
2022-08-24T08:16:14.639Z,88.80
2022-08-24T08:18:52.102Z,88.00
2022-08-24T08:21:44.656Z,88.00
2022-08-24T08:24:31.435Z,87.80
2022-08-24T08:27:23.815Z,88.10
2022-08-24T08:29:55.479Z,88.10
2022-08-24T08:32:25.993Z,86.00
2022-08-24T08:35:08.216Z,84.90
2022-08-24T08:38:02.614Z,85.10
2022-08-24T08:40:56.467Z,86.60
2022-08-24T08:43:44.095Z,87.80
2022-08-24T08:46:40.951Z,87.90
2022-08-24T08:49:53.965Z,86.40
2022-08-24T08:52:42.727Z,88.20
2022-08-24T08:55:29.158Z,86.40
2022-08-24T08:58:15.937Z,86.10
2022-08-24T09:01:09.848Z,86.50
2022-08-24T09:07:25.821Z,88.90
2022-08-24T09:10:20.117Z,85.40
2022-08-24T09:13:37.235Z,84.90
2022-08-24T09:16:33.703Z,85.50
2022-08-24T09:19:31.450Z,86.20
2022-08-24T09:22:12.611Z,87.50
2022-08-24T09:25:17.967Z,87.00
2022-08-24T09:28:03.064Z,85.40
2022-08-24T09:30:44.517Z,86.80
2022-08-24T09:33:22.617Z,83.20
2022-08-24T09:36:09.712Z,86.50
2022-08-24T09:39:03.417Z,87.80
2022-08-24T09:42:13.878Z,85.60
2022-08-24T09:45:26.385Z,85.80
2022-08-24T09:48:24.467Z,87.10
2022-08-24T09:51:31.038Z,85.90
2022-08-24T09:54:45.496Z,85.30
2022-08-24T10:00:35.226Z,83.60
2022-08-24T10:03:18.010Z,81.10
2022-08-24T10:06:15.223Z,82.20
2022-08-24T10:09:05.767Z,83.10
2022-08-24T10:11:46.334Z,85.20
2022-08-24T10:15:03.550Z,85.20
2022-08-24T10:17:52.606Z,80.60
2022-08-24T10:20:43.835Z,82.70
2022-08-24T10:24:04.020Z,81.70
2022-08-24T10:26:58.299Z,77.80
2022-08-24T10:29:47.807Z,78.30
2022-08-24T10:32:50.257Z,79.30
2022-08-24T10:35:34.303Z,80.60
2022-08-24T10:38:51.227Z,79.00
2022-08-24T10:42:10.621Z,81.10
2022-08-24T10:45:01.396Z,77.90
2022-08-24T10:47:37.356Z,80.10
2022-08-24T10:50:36.137Z,78.30
2022-08-24T10:53:24.790Z,81.00
2022-08-24T10:56:09.567Z,75.70
2022-08-24T10:59:17.676Z,74.60
2022-08-24T11:02:09.571Z,73.00
2022-08-24T11:04:44.028Z,72.00
2022-08-24T11:07:20.919Z,71.80
2022-08-24T11:09:53.987Z,71.00
2022-08-24T11:12:30.869Z,70.90
2022-08-24T11:15:04.677Z,70.60
2022-08-24T11:17:36.737Z,71.30
2022-08-24T11:20:26.708Z,69.80
2022-08-24T11:23:05.437Z,71.30
2022-08-24T11:25:38.638Z,75.00
2022-08-24T11:28:21.385Z,70.00
2022-08-24T11:30:53.101Z,68.30
2022-08-24T11:33:31.305Z,67.60
2022-08-24T11:36:02.570Z,67.20
2022-08-24T11:38:35.475Z,66.10
2022-08-24T11:41:13.158Z,63.60
2022-08-24T11:44:05.081Z,61.10
2022-08-24T11:46:44.550Z,57.20
2022-08-24T11:49:21.377Z,58.70
2022-08-24T11:51:56.316Z,57.10
2022-08-24T11:54:36.160Z,57.60
2022-08-24T11:57:12.730Z,56.10
2022-08-24T11:59:51.770Z,51.60
2022-08-24T12:02:30.585Z,54.40
2022-08-24T12:05:08.387Z,57.50
2022-08-24T12:07:52.227Z,55.80
2022-08-24T12:10:32.838Z,54.20
2022-08-24T12:13:09.165Z,55.30
2022-08-24T12:15:51.805Z,54.10
2022-08-24T12:18:32.845Z,51.90
2022-08-24T12:21:02.859Z,52.50
2022-08-24T12:23:39.747Z,53.10
2022-08-24T12:26:14.367Z,52.00
2022-08-24T12:28:53.646Z,54.40
2022-08-24T12:31:40.430Z,52.20
2022-08-24T12:34:17.799Z,51.40
2022-08-24T12:36:58.382Z,53.20
2022-08-24T12:39:33.731Z,53.20
2022-08-24T12:42:17.024Z,51.80
2022-08-24T12:44:52.570Z,49.00
2022-08-24T12:47:27.309Z,51.50
2022-08-24T12:50:05.516Z,50.40
2022-08-24T12:53:24.588Z,49.60
2022-08-24T12:56:26.653Z,50.30
2022-08-24T12:59:04.764Z,49.70
2022-08-24T13:01:37.642Z,49.00
2022-08-24T13:04:17.580Z,50.00
2022-08-24T13:06:59.018Z,50.90
2022-08-24T13:09:35.745Z,48.60
2022-08-24T13:12:38.581Z,48.30
2022-08-24T13:15:24.027Z,49.80
2022-08-24T13:18:02.509Z,47.30
2022-08-24T13:20:57.943Z,48.50
2022-08-24T13:23:29.702Z,48.40
2022-08-24T13:26:01.973Z,49.30
2022-08-24T13:28:42.643Z,48.00
2022-08-24T13:31:36.013Z,49.70
2022-08-24T13:34:40.626Z,47.90
2022-08-24T13:37:17.204Z,47.40
2022-08-24T13:40:10.592Z,49.80
2022-08-24T13:43:04.841Z,50.50
2022-08-24T13:45:42.953Z,50.30
2022-08-24T13:48:30.680Z,48.40
2022-08-24T13:51:31.109Z,50.90
2022-08-24T13:54:22.445Z,50.60
2022-08-24T13:57:05.450Z,47.50
2022-08-24T14:00:06.752Z,49.10
2022-08-24T14:02:50.537Z,46.70
2022-08-24T14:05:35.237Z,48.30
2022-08-24T14:08:25.293Z,46.40
2022-08-24T14:11:05.240Z,46.60
2022-08-24T14:13:54.503Z,47.00
2022-08-24T14:17:07.433Z,45.60
2022-08-24T14:20:00.393Z,45.50
2022-08-24T14:22:37.173Z,45.50
2022-08-24T14:25:21.602Z,45.70
2022-08-24T14:27:54.092Z,46.70
2022-08-24T14:30:43.967Z,45.40
2022-08-24T14:33:29.870Z,46.20
2022-08-24T14:36:14.329Z,47.40
2022-08-24T14:38:59.598Z,44.20
2022-08-24T14:41:50.499Z,45.90
2022-08-24T14:44:27.891Z,44.80
2022-08-24T14:47:11.531Z,44.80
2022-08-24T14:49:51.072Z,44.30
2022-08-24T14:52:48.620Z,43.80
2022-08-24T14:55:30.743Z,43.30
2022-08-24T14:58:19.381Z,44.00
2022-08-24T15:01:32.873Z,44.50
2022-08-24T15:04:38.159Z,44.30
2022-08-24T15:07:31.654Z,42.50
2022-08-24T15:10:06.502Z,42.10
2022-08-24T15:12:42.742Z,41.20
2022-08-24T15:15:19.700Z,41.10
2022-08-24T15:18:02.323Z,44.00
2022-08-24T15:20:55.482Z,44.00
2022-08-24T15:23:35.249Z,43.70
2022-08-24T15:26:11.493Z,42.80
2022-08-24T15:28:56.767Z,42.30
2022-08-24T15:31:30.601Z,42.60
2022-08-24T15:34:04.370Z,43.50
2022-08-24T15:36:36.836Z,42.60
2022-08-24T15:39:09.212Z,42.10
2022-08-24T15:41:44.345Z,43.20
2022-08-24T15:44:21.185Z,42.70
2022-08-24T15:46:57.650Z,42.80
2022-08-24T15:49:30.778Z,41.60
2022-08-24T15:52:06.745Z,41.90
2022-08-24T15:54:40.340Z,41.30
2022-08-24T15:57:28.282Z,41.20
2022-08-24T16:00:10.273Z,41.70
2022-08-24T16:02:39.524Z,42.00
2022-08-24T16:05:19.112Z,42.20
2022-08-24T16:08:11.252Z,41.20
2022-08-24T16:10:44.251Z,40.30
2022-08-24T16:13:27.783Z,40.50
2022-08-24T16:16:05.571Z,40.30
2022-08-24T16:18:49.932Z,40.60
2022-08-24T16:21:24.933Z,40.60
2022-08-24T16:24:02.652Z,40.20
2022-08-24T16:26:37.643Z,39.60
2022-08-24T16:29:07.601Z,40.10
2022-08-24T16:31:52.261Z,41.50
2022-08-24T16:34:29.460Z,41.90
2022-08-24T16:37:02.029Z,41.90
2022-08-24T16:39:35.242Z,41.10
2022-08-24T16:42:09.901Z,41.30
2022-08-24T16:44:42.212Z,41.10
2022-08-24T16:47:12.753Z,40.70
2022-08-24T16:49:47.773Z,41.00
2022-08-24T16:52:19.442Z,41.40
2022-08-24T16:54:51.593Z,41.10
2022-08-24T16:57:24.702Z,40.70
2022-08-24T17:00:41.295Z,42.00
2022-08-24T17:03:17.768Z,42.30
2022-08-24T17:05:48.083Z,42.20
2022-08-24T17:08:18.204Z,42.30
2022-08-24T17:11:18.656Z,41.50
2022-08-24T17:13:51.930Z,41.30
2022-08-24T17:16:24.663Z,41.90
2022-08-24T17:18:54.642Z,42.60
2022-08-24T17:21:24.962Z,41.40
2022-08-24T17:24:00.102Z,41.40
2022-08-24T17:26:33.290Z,42.10
2022-08-24T17:29:07.713Z,42.10
2022-08-24T17:31:38.675Z,43.30
2022-08-24T17:34:11.642Z,43.30
2022-08-24T17:36:48.112Z,43.80
2022-08-24T17:39:24.462Z,44.80
2022-08-24T17:46:15.963Z,45.40
2022-08-24T17:48:50.734Z,45.20
2022-08-24T17:51:21.161Z,46.10
2022-08-24T17:54:03.681Z,46.50
2022-08-24T17:56:39.821Z,47.00
2022-08-24T17:59:24.092Z,47.20
2022-08-24T18:01:57.694Z,48.50
2022-08-24T18:04:30.446Z,47.70
2022-08-24T18:07:49.638Z,48.70
2022-08-24T18:10:19.140Z,49.00
2022-08-24T18:12:50.822Z,49.90
2022-08-24T18:15:34.761Z,49.90
2022-08-24T18:18:24.410Z,48.90
2022-08-24T18:20:54.952Z,49.20
2022-08-24T18:23:24.921Z,49.90
2022-08-24T18:25:58.764Z,50.50
2022-08-24T18:28:32.373Z,50.10
2022-08-24T18:31:14.375Z,50.10
2022-08-24T18:33:47.973Z,50.20
2022-08-24T18:36:17.782Z,50.30
2022-08-24T18:38:47.696Z,50.80
2022-08-24T18:41:18.636Z,51.10
2022-08-24T18:43:50.385Z,51.40
2022-08-24T18:46:20.827Z,51.70
2022-08-24T18:48:53.917Z,52.90
2022-08-24T18:51:27.770Z,54.80
2022-08-24T18:54:07.157Z,57.00
2022-08-24T18:56:37.686Z,57.00
2022-08-24T18:59:08.316Z,57.60
2022-08-24T19:01:54.017Z,58.00
2022-08-24T19:04:32.183Z,58.60
2022-08-24T19:07:03.346Z,58.80
2022-08-24T19:09:34.529Z,59.30
2022-08-24T19:12:05.740Z,60.80
2022-08-24T19:14:36.167Z,62.30
2022-08-24T19:17:06.906Z,63.70
2022-08-24T19:19:38.267Z,63.50
2022-08-24T19:22:11.128Z,63.90
2022-08-24T19:24:41.247Z,65.80
2022-08-24T19:27:11.156Z,66.40
2022-08-24T19:29:56.981Z,67.50
2022-08-24T19:32:41.826Z,67.40
2022-08-24T19:35:17.254Z,68.00
2022-08-24T19:37:50.047Z,68.10
2022-08-24T19:40:23.932Z,69.10
2022-08-24T19:42:58.271Z,70.60
2022-08-24T19:45:46.201Z,71.20
2022-08-24T19:48:18.986Z,70.70
2022-08-24T19:50:51.567Z,71.10
2022-08-24T19:53:21.887Z,71.60
2022-08-24T19:55:52.007Z,72.80
2022-08-24T19:58:25.297Z,73.50
2022-08-24T20:00:59.763Z,74.10
2022-08-24T20:03:29.736Z,74.00
2022-08-24T20:06:01.597Z,73.70
2022-08-24T20:08:32.566Z,74.50
2022-08-24T20:11:02.550Z,77.90
2022-08-24T20:13:32.464Z,77.60
2022-08-24T20:16:10.453Z,76.70
2022-08-24T20:18:42.541Z,76.30
2022-08-24T20:21:15.128Z,76.80
2022-08-24T20:23:47.066Z,76.20
2022-08-24T20:26:18.310Z,76.90
2022-08-24T20:28:50.802Z,75.00
2022-08-24T20:31:28.783Z,75.20
2022-08-24T20:33:59.228Z,74.40
2022-08-24T20:36:34.352Z,73.80
2022-08-24T20:39:06.738Z,75.30
2022-08-24T20:41:36.640Z,76.40
2022-08-24T20:44:10.757Z,76.50
2022-08-24T20:46:46.646Z,77.10
2022-08-24T20:49:19.481Z,76.70
2022-08-24T20:51:54.731Z,75.80
2022-08-24T20:54:26.490Z,76.20
2022-08-24T20:56:56.501Z,76.20
2022-08-24T20:59:27.135Z,76.60
2022-08-24T21:02:00.532Z,77.60
2022-08-24T21:04:41.628Z,78.00
2022-08-24T21:07:20.950Z,78.30
2022-08-24T21:09:58.331Z,77.70
2022-08-24T21:12:32.581Z,77.90
2022-08-24T21:15:02.978Z,77.90
2022-08-24T21:17:34.949Z,78.30
2022-08-24T21:20:05.261Z,79.10
2022-08-24T21:22:37.538Z,80.10
2022-08-24T21:25:10.019Z,80.50
2022-08-24T21:27:43.632Z,79.80
2022-08-24T21:30:16.921Z,79.90
2022-08-24T21:33:05.505Z,80.60
2022-08-24T21:35:38.131Z,81.10
2022-08-24T21:38:10.308Z,81.00
2022-08-24T21:40:40.210Z,80.90
2022-08-24T21:43:14.843Z,80.80
2022-08-24T21:45:51.621Z,80.50
2022-08-24T21:48:22.041Z,79.80
2022-08-24T21:50:52.578Z,80.10
2022-08-24T21:53:28.548Z,80.10
2022-08-24T21:56:00.186Z,79.70
2022-08-24T21:58:30.096Z,79.40
2022-08-24T22:01:01.248Z,78.50
2022-08-24T22:03:40.338Z,77.90
2022-08-24T22:06:12.566Z,77.50
2022-08-24T22:08:47.161Z,77.70
2022-08-24T22:11:20.977Z,77.90
2022-08-24T22:13:51.186Z,78.00
2022-08-24T22:16:22.516Z,78.20
2022-08-24T22:18:53.189Z,78.30
2022-08-24T22:21:27.288Z,78.00
2022-08-24T22:24:01.494Z,77.90
2022-08-24T22:26:34.486Z,78.00
2022-08-24T22:29:08.286Z,77.80
2022-08-24T22:31:40.797Z,78.00
2022-08-24T22:34:13.339Z,78.20
2022-08-24T22:36:52.177Z,77.40
2022-08-24T22:39:25.157Z,77.50
2022-08-24T22:41:55.181Z,77.90
2022-08-24T22:44:25.597Z,77.50
2022-08-24T22:46:57.719Z,77.70
2022-08-24T22:49:31.361Z,77.30
2022-08-24T22:52:01.735Z,77.10
2022-08-24T22:54:34.989Z,77.00
2022-08-24T22:57:05.926Z,77.40
2022-08-24T22:59:38.087Z,76.50
2022-08-24T23:02:10.809Z,76.70
2022-08-24T23:04:44.461Z,76.80
2022-08-24T23:07:15.093Z,76.50
2022-08-24T23:09:47.887Z,77.00
2022-08-24T23:12:19.797Z,77.80
2022-08-24T23:14:51.198Z,77.30
2022-08-24T23:17:22.541Z,76.80
2022-08-24T23:20:05.775Z,77.20
2022-08-24T23:22:38.653Z,77.20
2022-08-24T23:25:13.284Z,76.80
2022-08-24T23:27:46.534Z,76.70
2022-08-24T23:30:22.742Z,77.10
2022-08-24T23:32:52.755Z,76.70
2022-08-24T23:35:22.665Z,78.00
2022-08-24T23:37:52.886Z,76.90
2022-08-24T23:40:41.736Z,77.20
2022-08-24T23:43:12.615Z,78.40
2022-08-24T23:45:42.182Z,76.90
2022-08-24T23:48:11.072Z,78.00
2022-08-24T23:50:39.792Z,78.80
2022-08-24T23:53:08.626Z,77.90
2022-08-24T23:55:37.482Z,78.20
2022-08-24T23:58:06.515Z,77.90
